Time;durP1;ratioP1;P1;durP2;ratioP2;P2;SDS_P1;SDS_P2;PMS_P1;PMS_P2;Temp;Humidity;BMP_temperature;BMP_pressure;BME280_temperature;BME280_humidity;BME280_pressure;Samples;Min_cycle;Max_cycle;Signal;HPM_P1;HPM_P2
2024/04/19 00:00:10;;;;;;;;;;;;;;;;;;373572;26;1264;-79
2024/04/19 00:00:20;;;;;;;;;;;;;;;;;;371089;26;1196;-79
2024/04/19 00:00:30;;;;;;;;;;;;;;;;;;366529;27;988;-79
2024/04/19 00:00:40;;;;;;;;;;;;;;;;;;367441;26;1433;-79
2024/04/19 00:00:51;;;;;;;;;;;;;;;;;;371163;26;1364;-79
2024/04/19 00:01:01;;;;;;;;;;;;;;;;;;371018;26;1259;-79
2024/04/19 00:01:11;;;;;;;;;;;;;;;;;;373563;26;1364;-79
2024/04/19 00:01:22;;;;;;;;;;;;;;;;;;373693;26;972;-79
2024/04/19 00:01:32;;;;;;;;;;;;;;;;;;371262;26;984;-79
2024/04/19 00:01:42;;;;;;;;;;;;;;;;;;370993;26;1340;-79
2024/04/19 00:01:53;;;;;;;;;;;;;;;;;;371223;26;1015;-79
2024/04/19 00:02:03;;;;;;;;;;;;;;;;;;373529;26;1734;-79
2024/04/19 00:02:13;;;;;;;;;;;;;;;;;;373673;26;1055;-79
2024/04/19 00:02:23;;;;;;;;;;;;;;;;;;372875;26;1641;-79
2024/04/19 00:02:34;;;;;;;;;;;;;;;;;;371814;26;1168;-79
2024/04/19 00:02:44;;;;;;;;;;;;;;;;;;370000;26;1758;-78
2024/04/19 00:02:54;;;;;;;;;;;;;;;;;;368867;26;993;-79
2024/04/19 00:03:04;;;;;;;;;;;;;;;;;;373184;26;1585;-79
2024/04/19 00:03:15;;;;;;;;;;;;;;;;;;373639;26;864;-79
2024/04/19 00:03:25;;;;;;;;;;;;;;;;;;371164;26;1906;-79
2024/04/19 00:03:35;;;;;;;;;;;;;;;;;;373368;26;1602;-79
2024/04/19 00:03:46;;;;;;;;;;;;;;;;;;373458;26;1732;-79
2024/04/19 00:03:57;;;;;;;;;;;;;;;;;;373586;26;1338;-79
2024/04/19 00:04:07;;;;;;;;;;;;;;;;;;368570;26;1212;-79
2024/04/19 00:04:17;;;;;;;;;;;;;;;;;;370949;26;1391;-78
2024/04/19 00:04:27;;;;;;;;;;;;;;;;;;373471;26;1731;-79
2024/04/19 00:04:37;;;;;;;;;;;;;;;;;;376203;26;956;-78
2024/04/19 00:04:48;;;;;;;;;;;;;;;;;;376151;26;1377;-79
2024/04/19 00:04:58;;;;;;;;;;;;;;;;;;375925;26;1573;-79
2024/04/19 00:05:10;;;;;;;;;;;;;;;;;;368819;26;1076;-79
2024/04/19 00:05:20;;;;;;;;;;;;;;;;;;368829;26;1155;-79
2024/04/19 00:05:30;;;;;;;;;;;;;;;;;;368681;26;1259;-79
2024/04/19 00:05:41;;;;;;;;;;;;;;;;;;368761;26;1545;-79
2024/04/19 00:05:51;;;;;;;;;;;;;;;;;;369981;26;810;-78
2024/04/19 00:06:02;;;;;;;;;;;;;;;;;;371022;26;1217;-79
2024/04/19 00:06:12;;;;;;;;;;;;;;;;;;368716;26;1147;-78
2024/04/19 00:06:22;;;;;;;;;;;;;;;;;;369443;26;1559;-79
2024/04/19 00:06:33;;;;;;;;;;;;;;;;;;371165;26;1060;-79
2024/04/19 00:06:43;;;;;;;;;;;;;;;;;;368632;26;1185;-78
2024/04/19 00:06:54;;;;;;;;;;;;;;;;;;368826;26;949;-79
2024/04/19 00:07:05;;;;;;;;;;;;;;;;;;368864;26;1036;-79
2024/04/19 00:07:15;;;;;;;;;;;;;;;;;;368842;26;791;-79
2024/04/19 00:07:25;;;;;;;;;;;;;;;;;;368925;26;1281;-79
2024/04/19 00:07:36;;;;;;;;;;;;;;;;;;373753;26;1031;-79
2024/04/19 00:07:46;;;;;;;;;;;;;;;;;;371271;26;1047;-79
2024/04/19 00:07:57;;;;;;;;;;;;;;;;;;368706;26;1311;-79
2024/04/19 00:08:07;;;;;;;;;;;;;;;;;;369259;26;1675;-79
2024/04/19 00:08:18;;;;;;;;;;;;;;;;;;372570;26;1595;-78
2024/04/19 00:08:28;;;;;;;;;;;;;;;;;;366407;27;1000;-79
2024/04/19 00:08:38;;;;;;;;;;;;;;;;;;368929;26;815;-79
2024/04/19 00:08:48;;;;;;;;;;;;;;;;;;368805;26;912;-79
2024/04/19 00:08:59;;;;;;;;;;;;;;;;;;368728;26;1275;-79
2024/04/19 00:09:09;;;;;;;;;;;;;;;;;;373183;26;972;-78
2024/04/19 00:09:19;;;;;;;;;;;;;;;;;;373728;26;1024;-79
2024/04/19 00:09:29;;;;;;;;;;;;;;;;;;371031;26;1440;-79
2024/04/19 00:09:39;;;;;;;;;;;;;;;;;;371357;26;1005;-78
2024/04/19 00:09:50;;;;;;;;;;;;;;;;;;371231;26;758;-79
2024/04/19 00:10:00;;;;;;;;;;;;;;;;;;371079;26;1555;-78
2024/04/19 00:10:10;;;;;;;;;;;;;;;;;;371196;26;829;-79
2024/04/19 00:10:20;;;;;;;;;;;;;;;;;;368837;26;997;-78
2024/04/19 00:10:33;;;;;;;;;;;;;;;;;;370930;26;1561;-79
2024/04/19 00:10:44;;;;;;;;;;;;;;;;;;369721;26;1746;-78
2024/04/19 00:10:55;;;;;;;;;;;;;;;;;;371210;26;1019;-79
2024/04/19 00:11:05;;;;;;;;;;;;;;;;;;371291;26;1426;-78
2024/04/19 00:11:15;;;;;;;;;;;;;;;;;;373684;26;986;-79
2024/04/19 00:11:25;;;;;;;;;;;;;;;;;;369852;26;1687;-79
2024/04/19 00:11:36;;;;;;;;;;;;;;;;;;368636;26;1247;-79
2024/04/19 00:11:46;;;;;;;;;;;;;;;;;;368635;26;1428;-79
2024/04/19 00:11:56;;;;;;;;;;;;;;;;;;368733;26;1009;-79
2024/04/19 00:12:07;;;;;;;;;;;;;;;;;;371121;26;1661;-79
2024/04/19 00:12:17;;;;;;;;;;;;;;;;;;371027;26;1239;-79
2024/04/19 00:12:27;;;;;;;;;;;;;;;;;;371056;26;1570;-79
2024/04/19 00:12:38;;;;;;;;;;;;;;;;;;371094;26;1705;-79
2024/04/19 00:12:48;;;;;;;;;;;;;;;;;;368645;26;1685;-79
2024/04/19 00:12:59;;;;;;;;;;;;;;;;;;368757;26;972;-79
2024/04/19 00:13:09;;;;;;;;;;;;;;;;;;368807;26;1082;-78
2024/04/19 00:13:19;;;;;;;;;;;;;;;;;;371038;26;1101;-78
2024/04/19 00:13:30;;;;;;;;;;;;;;;;;;370862;26;1239;-78
2024/04/19 00:13:40;;;;;;;;;;;;;;;;;;371140;26;782;-78
2024/04/19 00:13:50;;;;;;;;;;;;;;;;;;371070;26;1561;-78
2024/04/19 00:14:01;;;;;;;;;;;;;;;;;;371182;26;948;-78
2024/04/19 00:14:11;;;;;;;;;;;;;;;;;;368842;26;1001;-78
2024/04/19 00:14:21;;;;;;;;;;;;;;;;;;368742;26;941;-78
2024/04/19 00:14:32;;;;;;;;;;;;;;;;;;371141;26;1209;-78
2024/04/19 00:14:42;;;;;;;;;;;;;;;;;;371032;26;1037;-79
2024/04/19 00:14:52;;;;;;;;;;;;;;;;;;368604;26;1740;-78
2024/04/19 00:15:03;;;;;;;;;;;;;;;;;;368665;26;1213;-79
2024/04/19 00:15:13;;;;;;;;;;;;;;;;;;370992;26;1657;-78
2024/04/19 00:15:23;;;;;;;;;;;;;;;;;;370916;26;1733;-78
2024/04/19 00:15:33;;;;;;;;;;;;;;;;;;373470;26;1726;-78
2024/04/19 00:15:43;;;;;;;;;;;;;;;;;;371224;26;1434;-78
2024/04/19 00:15:57;;;;;;;;;;;;;;;;;;371122;26;1566;-78
2024/04/19 00:16:07;;;;;;;;;;;;;;;;;;371160;26;1546;-78
2024/04/19 00:16:17;;;;;;;;;;;;;;;;;;371285;26;904;-78
2024/04/19 00:16:27;;;;;;;;;;;;;;;;;;368468;26;1515;-78
2024/04/19 00:16:37;;;;;;;;;;;;;;;;;;367639;26;1231;-78
2024/04/19 00:16:48;;;;;;;;;;;;;;;;;;371094;26;1443;-78
2024/04/19 00:16:59;;;;;;;;;;;;;;;;;;371253;26;1824;-78
2024/04/19 00:17:09;;;;;;;;;;;;;;;;;;369106;26;1808;-78
2024/04/19 00:17:19;;;;;;;;;;;;;;;;;;368834;26;1024;-78
2024/04/19 00:17:29;;;;;;;;;;;;;;;;;;369524;26;1538;-78
2024/04/19 00:17:39;;;;;;;;;;;;;;;;;;371284;26;984;-78
2024/04/19 00:17:50;;;;;;;;;;;;;;;;;;370769;26;1367;-78
2024/04/19 00:18:00;;;;;;;;;;;;;;;;;;371304;26;937;-78
2024/04/19 00:18:10;;;;;;;;;;;;;;;;;;370862;26;1776;-78
2024/04/19 00:18:21;;;;;;;;;;;;;;;;;;376202;26;975;-79
2024/04/19 00:18:31;;;;;;;;;;;;;;;;;;374422;26;1607;-78
2024/04/19 00:18:41;;;;;;;;;;;;;;;;;;373583;26;1317;-78
2024/04/19 00:18:51;;;;;;;;;;;;;;;;;;373292;26;1344;-78
2024/04/19 00:19:02;;;;;;;;;;;;;;;;;;376118;26;972;-78
2024/04/19 00:19:12;;;;;;;;;;;;;;;;;;376055;26;1035;-78
2024/04/19 00:19:22;;;;;;;;;;;;;;;;;;375824;26;837;-78
2024/04/19 00:19:32;;;;;;;;;;;;;;;;;;373647;26;1636;-78
2024/04/19 00:19:43;;;;;;;;;;;;;;;;;;373696;26;1035;-78
2024/04/19 00:19:53;;;;;;;;;;;;;;;;;;370901;26;1578;-78
2024/04/19 00:20:03;;;;;;;;;;;;;;;;;;373606;26;1295;-78
2024/04/19 00:20:13;;;;;;;;;;;;;;;;;;373863;26;1083;-79
2024/04/19 00:20:24;;;;;;;;;;;;;;;;;;373291;26;1400;-78
2024/04/19 00:20:34;;;;;;;;;;;;;;;;;;372964;26;1510;-78
2024/04/19 00:20:44;;;;;;;;;;;;;;;;;;375873;26;1320;-78
2024/04/19 00:20:56;;;;;;;;;;;;;;;;;;370613;26;1582;-78
2024/04/19 00:21:06;;;;;;;;;;;;;;;;;;370330;26;1610;-78
2024/04/19 00:21:16;;;;;;;;;;;;;;;;;;370811;26;1436;-78
2024/04/19 00:21:26;;;;;;;;;;;;;;;;;;373648;26;1050;-78
2024/04/19 00:21:36;;;;;;;;;;;;;;;;;;374836;26;1750;-78
2024/04/19 00:21:47;;;;;;;;;;;;;;;;;;373585;26;1310;-78
2024/04/19 00:21:57;;;;;;;;;;;;;;;;;;375952;26;1659;-78
2024/04/19 00:22:07;;;;;;;;;;;;;;;;;;375390;26;1398;-78
2024/04/19 00:22:19;;;;;;;;;;;;;;;;;;373542;26;1284;-78
2024/04/19 00:22:29;;;;;;;;;;;;;;;;;;373751;26;789;-78
2024/04/19 00:22:39;;;;;;;;;;;;;;;;;;370997;26;1404;-78
2024/04/19 00:22:49;;;;;;;;;;;;;;;;;;371175;26;1008;-78
2024/04/19 00:22:59;;;;;;;;;;;;;;;;;;371322;26;1631;-78
2024/04/19 00:23:10;;;;;;;;;;;;;;;;;;373649;26;1478;-78
2024/04/19 00:23:20;;;;;;;;;;;;;;;;;;378476;26;1283;-79
2024/04/19 00:23:31;;;;;;;;;;;;;;;;;;376029;26;1848;-78
2024/04/19 00:23:41;;;;;;;;;;;;;;;;;;373499;26;1226;-78
2024/04/19 00:23:51;;;;;;;;;;;;;;;;;;370988;26;1449;-78
2024/04/19 00:24:02;;;;;;;;;;;;;;;;;;373616;26;1482;-78
2024/04/19 00:24:12;;;;;;;;;;;;;;;;;;373555;26;959;-78
2024/04/19 00:24:22;;;;;;;;;;;;;;;;;;376034;26;1465;-78
2024/04/19 00:24:32;;;;;;;;;;;;;;;;;;374707;26;1251;-78
2024/04/19 00:24:43;;;;;;;;;;;;;;;;;;375481;26;1638;-78
2024/04/19 00:24:53;;;;;;;;;;;;;;;;;;370903;26;1032;-78
2024/04/19 00:25:03;;;;;;;;;;;;;;;;;;371077;26;1334;-78
2024/04/19 00:25:14;;;;;;;;;;;;;;;;;;371108;26;1420;-78
2024/04/19 00:25:24;;;;;;;;;;;;;;;;;;370926;26;1095;-78
2024/04/19 00:25:34;;;;;;;;;;;;;;;;;;371029;26;964;-78
2024/04/19 00:25:44;;;;;;;;;;;;;;;;;;368805;26;980;-78
2024/04/19 00:25:55;;;;;;;;;;;;;;;;;;368490;26;992;-78
2024/04/19 00:26:05;;;;;;;;;;;;;;;;;;368664;26;1677;-78
2024/04/19 00:26:16;;;;;;;;;;;;;;;;;;368680;26;1764;-78
2024/04/19 00:26:26;;;;;;;;;;;;;;;;;;368701;26;945;-78
2024/04/19 00:26:36;;;;;;;;;;;;;;;;;;370685;26;1427;-78
2024/04/19 00:26:46;;;;;;;;;;;;;;;;;;371210;26;904;-78
2024/04/19 00:26:57;;;;;;;;;;;;;;;;;;372896;26;1396;-78
2024/04/19 00:27:07;;;;;;;;;;;;;;;;;;373631;26;1000;-78
2024/04/19 00:27:17;;;;;;;;;;;;;;;;;;375291;26;1623;-78
2024/04/19 00:27:27;;;;;;;;;;;;;;;;;;376012;26;1065;-78
2024/04/19 00:27:38;;;;;;;;;;;;;;;;;;373322;26;1292;-78
2024/04/19 00:27:48;;;;;;;;;;;;;;;;;;373763;26;1015;-78
2024/04/19 00:27:58;;;;;;;;;;;;;;;;;;370780;26;1452;-78
2024/04/19 00:28:08;;;;;;;;;;;;;;;;;;370174;26;1493;-78
2024/04/19 00:28:18;;;;;;;;;;;;;;;;;;368301;26;1970;-78
2024/04/19 00:28:29;;;;;;;;;;;;;;;;;;371145;26;845;-78
2024/04/19 00:28:39;;;;;;;;;;;;;;;;;;370589;26;1332;-78
2024/04/19 00:28:49;;;;;;;;;;;;;;;;;;371225;26;1028;-78
2024/04/19 00:29:00;;;;;;;;;;;;;;;;;;371034;26;1443;-78
2024/04/19 00:29:10;;;;;;;;;;;;;;;;;;371001;26;1544;-79
2024/04/19 00:29:20;;;;;;;;;;;;;;;;;;373344;26;1466;-78
2024/04/19 00:29:30;;;;;;;;;;;;;;;;;;373223;26;1496;-78
2024/04/19 00:29:41;;;;;;;;;;;;;;;;;;373009;26;1632;-78
2024/04/19 00:29:51;;;;;;;;;;;;;;;;;;371155;26;884;-78
2024/04/19 00:30:02;;;;;;;;;;;;;;;;;;366628;26;1601;-78
2024/04/19 00:30:12;;;;;;;;;;;;;;;;;;367818;26;1570;-78
2024/04/19 00:30:22;;;;;;;;;;;;;;;;;;368716;26;1602;-78
2024/04/19 00:30:33;;;;;;;;;;;;;;;;;;368779;26;852;-78
2024/04/19 00:30:43;;;;;;;;;;;;;;;;;;368628;26;1068;-78
2024/04/19 00:30:54;;;;;;;;;;;;;;;;;;368620;26;1469;-78
2024/04/19 00:31:05;;;;;;;;;;;;;;;;;;371257;26;1059;-78
2024/04/19 00:31:15;;;;;;;;;;;;;;;;;;368715;26;988;-78
2024/04/19 00:31:25;;;;;;;;;;;;;;;;;;370850;26;1758;-78
2024/04/19 00:31:35;;;;;;;;;;;;;;;;;;371145;26;1571;-78
2024/04/19 00:31:45;;;;;;;;;;;;;;;;;;370570;26;1054;-78
2024/04/19 00:31:56;;;;;;;;;;;;;;;;;;373377;26;1735;-78
2024/04/19 00:32:06;;;;;;;;;;;;;;;;;;373677;26;900;-79
2024/04/19 00:32:16;;;;;;;;;;;;;;;;;;373687;26;999;-78
2024/04/19 00:32:26;;;;;;;;;;;;;;;;;;373647;26;991;-78
2024/04/19 00:32:37;;;;;;;;;;;;;;;;;;373595;26;902;-78
2024/04/19 00:32:47;;;;;;;;;;;;;;;;;;373580;26;818;-78
2024/04/19 00:32:57;;;;;;;;;;;;;;;;;;370071;26;2032;-78
2024/04/19 00:33:07;;;;;;;;;;;;;;;;;;375849;26;1508;-78
2024/04/19 00:33:17;;;;;;;;;;;;;;;;;;373466;26;1606;-78
2024/04/19 00:33:28;;;;;;;;;;;;;;;;;;372840;26;1399;-78
2024/04/19 00:33:38;;;;;;;;;;;;;;;;;;373299;26;1545;-78
2024/04/19 00:33:48;;;;;;;;;;;;;;;;;;373414;26;1505;-78
2024/04/19 00:33:59;;;;;;;;;;;;;;;;;;372096;26;1612;-78
2024/04/19 00:34:09;;;;;;;;;;;;;;;;;;371185;26;987;-78
2024/04/19 00:34:19;;;;;;;;;;;;;;;;;;371184;26;1420;-78
2024/04/19 00:34:29;;;;;;;;;;;;;;;;;;368493;26;1200;-78
2024/04/19 00:34:39;;;;;;;;;;;;;;;;;;369492;26;1546;-78
2024/04/19 00:34:50;;;;;;;;;;;;;;;;;;371207;26;640;-78
2024/04/19 00:35:00;;;;;;;;;;;;;;;;;;368168;26;1557;-78
2024/04/19 00:35:10;;;;;;;;;;;;;;;;;;368524;26;1562;-78
2024/04/19 00:35:20;;;;;;;;;;;;;;;;;;368739;26;1647;-78
2024/04/19 00:35:30;;;;;;;;;;;;;;;;;;370869;26;1391;-78
2024/04/19 00:35:41;;;;;;;;;;;;;;;;;;370803;26;1648;-78
2024/04/19 00:35:51;;;;;;;;;;;;;;;;;;371021;26;2175;-77
2024/04/19 00:36:01;;;;;;;;;;;;;;;;;;372628;26;2090;-78
2024/04/19 00:36:11;;;;;;;;;;;;;;;;;;373097;26;1505;-77
2024/04/19 00:36:22;;;;;;;;;;;;;;;;;;370521;26;3163;-78
2024/04/19 00:36:32;;;;;;;;;;;;;;;;;;369092;26;1635;-80
2024/04/19 00:36:42;;;;;;;;;;;;;;;;;;367947;26;1272;-79
2024/04/19 00:36:52;;;;;;;;;;;;;;;;;;371150;26;1008;-79
2024/04/19 00:37:03;;;;;;;;;;;;;;;;;;370616;26;1592;-78
2024/04/19 00:37:13;;;;;;;;;;;;;;;;;;369283;26;1512;-78
2024/04/19 00:37:23;;;;;;;;;;;;;;;;;;368632;26;1638;-78
2024/04/19 00:37:33;;;;;;;;;;;;;;;;;;368745;26;945;-78
2024/04/19 00:37:44;;;;;;;;;;;;;;;;;;370342;26;1417;-78
2024/04/19 00:37:54;;;;;;;;;;;;;;;;;;371082;26;865;-79
2024/04/19 00:38:04;;;;;;;;;;;;;;;;;;370564;26;1635;-78
2024/04/19 00:38:14;;;;;;;;;;;;;;;;;;369719;26;1260;-78
2024/04/19 00:38:24;;;;;;;;;;;;;;;;;;370729;26;1567;-78
2024/04/19 00:38:34;;;;;;;;;;;;;;;;;;369374;26;1305;-78
2024/04/19 00:38:45;;;;;;;;;;;;;;;;;;372547;26;1448;-77
2024/04/19 00:38:55;;;;;;;;;;;;;;;;;;373677;26;983;-78
2024/04/19 00:39:05;;;;;;;;;;;;;;;;;;373154;26;1466;-78
2024/04/19 00:39:15;;;;;;;;;;;;;;;;;;368535;26;1139;-78
2024/04/19 00:39:26;;;;;;;;;;;;;;;;;;370668;26;1712;-78
2024/04/19 00:39:36;;;;;;;;;;;;;;;;;;370972;26;989;-78
2024/04/19 00:39:46;;;;;;;;;;;;;;;;;;375699;26;1738;-78
2024/04/19 00:39:57;;;;;;;;;;;;;;;;;;373217;26;1277;-78
2024/04/19 00:40:07;;;;;;;;;;;;;;;;;;371291;26;1737;-79
2024/04/19 00:40:17;;;;;;;;;;;;;;;;;;371011;26;1428;-78
2024/04/19 00:40:28;;;;;;;;;;;;;;;;;;373426;26;1622;-78
2024/04/19 00:40:38;;;;;;;;;;;;;;;;;;373423;26;987;-78
2024/04/19 00:40:48;;;;;;;;;;;;;;;;;;373521;26;1730;-78
2024/04/19 00:40:58;;;;;;;;;;;;;;;;;;373401;26;1592;-79
2024/04/19 00:41:09;;;;;;;;;;;;;;;;;;370962;26;1562;-78
2024/04/19 00:41:19;;;;;;;;;;;;;;;;;;371227;26;1553;-78
2024/04/19 00:41:29;;;;;;;;;;;;;;;;;;371786;26;1620;-78
2024/04/19 00:41:39;;;;;;;;;;;;;;;;;;372514;26;1420;-78
2024/04/19 00:41:49;;;;;;;;;;;;;;;;;;373574;26;984;-79
2024/04/19 00:42:00;;;;;;;;;;;;;;;;;;371242;26;1433;-79
2024/04/19 00:42:10;;;;;;;;;;;;;;;;;;368662;26;1313;-79
2024/04/19 00:42:20;;;;;;;;;;;;;;;;;;371057;26;1561;-79
2024/04/19 00:42:30;;;;;;;;;;;;;;;;;;373413;26;1480;-79
2024/04/19 00:42:41;;;;;;;;;;;;;;;;;;368628;26;1429;-78
2024/04/19 00:42:54;;;;;;;;;;;;;;;;;;368633;26;1273;-78
2024/04/19 00:43:04;;;;;;;;;;;;;;;;;;370287;26;1413;-79
2024/04/19 00:43:14;;;;;;;;;;;;;;;;;;371174;26;789;-78
2024/04/19 00:43:25;;;;;;;;;;;;;;;;;;370875;26;1857;-79
2024/04/19 00:43:35;;;;;;;;;;;;;;;;;;371060;26;976;-79
2024/04/19 00:43:45;;;;;;;;;;;;;;;;;;370896;26;1427;-79
2024/04/19 00:43:56;;;;;;;;;;;;;;;;;;368686;26;1343;-79
2024/04/19 00:44:06;;;;;;;;;;;;;;;;;;373335;26;1530;-78
2024/04/19 00:44:16;;;;;;;;;;;;;;;;;;370436;26;1796;-78
2024/04/19 00:44:30;;;;;;;;;;;;;;;;;;370966;26;1426;-79
2024/04/19 00:44:40;;;;;;;;;;;;;;;;;;370803;26;1324;-79
2024/04/19 00:44:50;;;;;;;;;;;;;;;;;;368512;26;1734;-79
2024/04/19 00:45:01;;;;;;;;;;;;;;;;;;368643;26;1464;-79
2024/04/19 00:45:40;;;;;;;;;;;;;;;;;;368346;26;1693;-78
2024/04/19 00:45:50;;;;;;;;;;;;;;;;;;363550;27;1545;-79
2024/04/19 00:46:01;;;;;;;;;;;;;;;;;;361465;27;1536;-80
2024/04/19 00:46:12;;;;;;;;;;;;;;;;;;363677;27;1666;-80
2024/04/19 00:46:22;;;;;;;;;;;;;;;;;;368123;26;1562;-79
2024/04/19 00:46:32;;;;;;;;;;;;;;;;;;368505;26;1207;-79
2024/04/19 00:46:43;;;;;;;;;;;;;;;;;;370864;26;1583;-79
2024/04/19 00:46:53;;;;;;;;;;;;;;;;;;373480;26;1262;-79
2024/04/19 00:47:03;;;;;;;;;;;;;;;;;;368650;26;1445;-79
2024/04/19 00:47:15;;;;;;;;;;;;;;;;;;368672;26;975;-79
2024/04/19 00:47:25;;;;;;;;;;;;;;;;;;368726;26;1420;-79
2024/04/19 00:47:36;;;;;;;;;;;;;;;;;;368533;26;1410;-79
2024/04/19 00:47:46;;;;;;;;;;;;;;;;;;366347;26;1453;-79
2024/04/19 00:47:56;;;;;;;;;;;;;;;;;;369326;26;1334;-79
2024/04/19 00:48:14;;;;;;;;;;;;;;;;;;370094;26;1543;-79
2024/04/19 00:48:25;;;;;;;;;;;;;;;;;;368944;26;1440;-79
2024/04/19 00:48:37;;;;;;;;;;;;;;;;;;365838;27;1060;-79
2024/04/19 00:48:47;;;;;;;;;;;;;;;;;;371739;26;1551;-79
2024/04/19 00:48:58;;;;;;;;;;;;;;;;;;368891;26;1440;-79
2024/04/19 00:49:08;;;;;;;;;;;;;;;;;;371295;26;957;-78
2024/04/19 00:49:18;;;;;;;;;;;;;;;;;;370879;26;1055;-79
2024/04/19 00:49:29;;;;;;;;;;;;;;;;;;371072;26;1455;-79
2024/04/19 00:49:39;;;;;;;;;;;;;;;;;;368536;26;1511;-79
2024/04/19 00:49:50;;;;;;;;;;;;;;;;;;368671;26;1020;-79
2024/04/19 00:50:01;;;;;;;;;;;;;;;;;;369988;26;1676;-79
2024/04/19 00:50:11;;;;;;;;;;;;;;;;;;372994;26;1557;-79
2024/04/19 00:50:21;;;;;;;;;;;;;;;;;;367027;26;1500;-79
2024/04/19 00:50:33;;;;;;;;;;;;;;;;;;368581;26;1226;-79
2024/04/19 00:50:44;;;;;;;;;;;;;;;;;;366245;27;1295;-79
2024/04/19 00:50:58;;;;;;;;;;;;;;;;;;366301;27;1591;-79
2024/04/19 00:51:09;;;;;;;;;;;;;;;;;;366228;27;1161;-79
2024/04/19 00:51:19;;;;;;;;;;;;;;;;;;366339;27;1214;-79
2024/04/19 00:51:31;;;;;;;;;;;;;;;;;;366270;27;1052;-79
2024/04/19 00:51:42;;;;;;;;;;;;;;;;;;366356;27;1079;-78
2024/04/19 00:51:52;;;;;;;;;;;;;;;;;;366285;27;1433;-79
2024/04/19 00:52:06;;;;;;;;;;;;;;;;;;368446;26;1548;-79
2024/04/19 00:52:17;;;;;;;;;;;;;;;;;;368797;26;953;-79
2024/04/19 00:52:27;;;;;;;;;;;;;;;;;;368512;26;992;-78
2024/04/19 00:52:39;;;;;;;;;;;;;;;;;;368752;26;1030;-79
2024/04/19 00:52:49;;;;;;;;;;;;;;;;;;368691;26;1224;-79
2024/04/19 00:53:00;;;;;;;;;;;;;;;;;;368678;26;995;-79
2024/04/19 00:53:11;;;;;;;;;;;;;;;;;;367337;26;1424;-79
2024/04/19 00:53:26;;;;;;;;;;;;;;;;;;366226;27;1363;-79
2024/04/19 00:53:37;;;;;;;;;;;;;;;;;;366406;27;849;-79
2024/04/19 00:53:47;;;;;;;;;;;;;;;;;;366348;26;1646;-78
2024/04/19 00:53:58;;;;;;;;;;;;;;;;;;365034;27;905;-79
2024/04/19 00:54:08;;;;;;;;;;;;;;;;;;366513;26;815;-79
2024/04/19 00:54:18;;;;;;;;;;;;;;;;;;368882;26;996;-79
2024/04/19 00:54:29;;;;;;;;;;;;;;;;;;369218;26;1388;-79
2024/04/19 00:54:40;;;;;;;;;;;;;;;;;;368677;26;1289;-79
2024/04/19 00:54:50;;;;;;;;;;;;;;;;;;368699;26;992;-79
2024/04/19 00:55:00;;;;;;;;;;;;;;;;;;368760;26;1045;-79
2024/04/19 00:55:10;;;;;;;;;;;;;;;;;;368616;26;1422;-79
2024/04/19 00:55:21;;;;;;;;;;;;;;;;;;366899;26;1520;-79
2024/04/19 00:55:32;;;;;;;;;;;;;;;;;;365797;26;1525;-79
2024/04/19 00:55:43;;;;;;;;;;;;;;;;;;368479;26;1000;-79
2024/04/19 00:55:57;;;;;;;;;;;;;;;;;;369188;26;1610;-79
2024/04/19 00:56:07;;;;;;;;;;;;;;;;;;366395;26;1554;-79
2024/04/19 00:56:19;;;;;;;;;;;;;;;;;;365973;27;1293;-79
2024/04/19 00:56:30;;;;;;;;;;;;;;;;;;366518;26;1712;-79
2024/04/19 00:56:41;;;;;;;;;;;;;;;;;;368458;26;1021;-79
2024/04/19 00:56:52;;;;;;;;;;;;;;;;;;368253;26;1761;-79
2024/04/19 00:57:02;;;;;;;;;;;;;;;;;;369099;26;1625;-79
2024/04/19 00:57:13;;;;;;;;;;;;;;;;;;366434;26;1216;-79
2024/04/19 00:57:23;;;;;;;;;;;;;;;;;;368656;26;2182;-79
2024/04/19 00:57:34;;;;;;;;;;;;;;;;;;369773;26;2812;-78
2024/04/19 00:57:45;;;;;;;;;;;;;;;;;;368384;26;1205;-78
2024/04/19 00:57:55;;;;;;;;;;;;;;;;;;371067;26;1524;-79
2024/04/19 00:58:06;;;;;;;;;;;;;;;;;;368452;26;1206;-78
2024/04/19 00:58:16;;;;;;;;;;;;;;;;;;368755;26;1666;-79
2024/04/19 00:58:27;;;;;;;;;;;;;;;;;;368594;26;1288;-79
2024/04/19 00:58:38;;;;;;;;;;;;;;;;;;368470;26;1610;-78
2024/04/19 00:58:49;;;;;;;;;;;;;;;;;;368513;26;1539;-79
2024/04/19 00:58:59;;;;;;;;;;;;;;;;;;366427;27;791;-78
2024/04/19 00:59:11;;;;;;;;;;;;;;;;;;367499;26;1921;-78
2024/04/19 00:59:21;;;;;;;;;;;;;;;;;;366296;27;1184;-79
2024/04/19 00:59:31;;;;;;;;;;;;;;;;;;368749;26;960;-79
2024/04/19 00:59:43;;;;;;;;;;;;;;;;;;366364;27;1017;-79
2024/04/19 00:59:53;;;;;;;;;;;;;;;;;;368627;26;1219;-79
2024/04/19 01:00:04;;;;;;;;;;;;;;;;;;371014;26;1291;-78
2024/04/19 01:00:14;;;;;;;;;;;;;;;;;;370867;26;1526;-78
2024/04/19 01:00:25;;;;;;;;;;;;;;;;;;366338;27;1298;-79
2024/04/19 01:00:35;;;;;;;;;;;;;;;;;;363984;27;1277;-79
2024/04/19 01:00:45;;;;;;;;;;;;;;;;;;366236;27;1323;-79
2024/04/19 01:00:58;;;;;;;;;;;;;;;;;;368150;26;1329;-79
2024/04/19 01:01:11;;;;;;;;;;;;;;;;;;368685;26;1267;-79
2024/04/19 01:01:22;;;;;;;;;;;;;;;;;;366502;27;1028;-79
2024/04/19 01:01:32;;;;;;;;;;;;;;;;;;366072;26;1347;-78
2024/04/19 01:01:43;;;;;;;;;;;;;;;;;;366430;26;1005;-79
2024/04/19 01:01:54;;;;;;;;;;;;;;;;;;366218;26;1100;-79
2024/04/19 01:02:04;;;;;;;;;;;;;;;;;;368734;26;1602;-79
2024/04/19 01:02:15;;;;;;;;;;;;;;;;;;368654;26;1008;-79
2024/04/19 01:02:25;;;;;;;;;;;;;;;;;;369068;26;1371;-79
2024/04/19 01:02:36;;;;;;;;;;;;;;;;;;364828;27;1566;-79
2024/04/19 01:02:46;;;;;;;;;;;;;;;;;;363637;27;1075;-79
2024/04/19 01:02:56;;;;;;;;;;;;;;;;;;366185;26;1420;-79
2024/04/19 01:03:07;;;;;;;;;;;;;;;;;;366421;27;997;-79
2024/04/19 01:03:17;;;;;;;;;;;;;;;;;;366412;26;1555;-79
2024/04/19 01:03:28;;;;;;;;;;;;;;;;;;366232;27;1871;-79
2024/04/19 01:03:38;;;;;;;;;;;;;;;;;;367745;26;1563;-79
2024/04/19 01:03:48;;;;;;;;;;;;;;;;;;368777;26;1202;-79
2024/04/19 01:03:58;;;;;;;;;;;;;;;;;;370504;26;1535;-79
2024/04/19 01:04:09;;;;;;;;;;;;;;;;;;370744;26;1398;-78
2024/04/19 01:04:20;;;;;;;;;;;;;;;;;;369253;26;1588;-79
2024/04/19 01:04:31;;;;;;;;;;;;;;;;;;368618;26;1360;-79
2024/04/19 01:04:42;;;;;;;;;;;;;;;;;;368542;26;996;-78
2024/04/19 01:04:52;;;;;;;;;;;;;;;;;;368666;26;1553;-78
2024/04/19 01:05:02;;;;;;;;;;;;;;;;;;366379;27;1020;-79
2024/04/19 01:05:13;;;;;;;;;;;;;;;;;;366710;26;1650;-79
2024/04/19 01:05:24;;;;;;;;;;;;;;;;;;368682;26;929;-79
2024/04/19 01:05:34;;;;;;;;;;;;;;;;;;368676;26;1775;-79
2024/04/19 01:05:44;;;;;;;;;;;;;;;;;;368626;26;1217;-79
2024/04/19 01:05:55;;;;;;;;;;;;;;;;;;366254;27;1560;-79
2024/04/19 01:06:05;;;;;;;;;;;;;;;;;;368710;26;1207;-79
2024/04/19 01:06:15;;;;;;;;;;;;;;;;;;368666;26;1032;-79
2024/04/19 01:06:25;;;;;;;;;;;;;;;;;;368787;26;869;-78
2024/04/19 01:06:36;;;;;;;;;;;;;;;;;;366321;27;1199;-79
2024/04/19 01:06:46;;;;;;;;;;;;;;;;;;368668;26;1372;-79
2024/04/19 01:06:56;;;;;;;;;;;;;;;;;;368834;26;1047;-79
2024/04/19 01:07:07;;;;;;;;;;;;;;;;;;371074;26;1012;-79
2024/04/19 01:07:17;;;;;;;;;;;;;;;;;;374867;26;1566;-79
2024/04/19 01:07:27;;;;;;;;;;;;;;;;;;373632;26;1072;-78
2024/04/19 01:07:38;;;;;;;;;;;;;;;;;;374624;26;1482;-79
2024/04/19 01:07:49;;;;;;;;;;;;;;;;;;373730;26;955;-79
2024/04/19 01:07:59;;;;;;;;;;;;;;;;;;373603;26;1082;-79
2024/04/19 01:08:10;;;;;;;;;;;;;;;;;;371145;26;1058;-79
2024/04/19 01:08:20;;;;;;;;;;;;;;;;;;370300;26;1563;-78
2024/04/19 01:08:30;;;;;;;;;;;;;;;;;;366371;27;1017;-79
2024/04/19 01:08:41;;;;;;;;;;;;;;;;;;367867;26;1600;-79
2024/04/19 01:08:51;;;;;;;;;;;;;;;;;;363931;27;997;-78
2024/04/19 01:09:03;;;;;;;;;;;;;;;;;;366057;27;997;-78
2024/04/19 01:09:14;;;;;;;;;;;;;;;;;;366324;27;1017;-79
2024/04/19 01:09:24;;;;;;;;;;;;;;;;;;366424;27;1044;-79
2024/04/19 01:09:34;;;;;;;;;;;;;;;;;;366177;27;1498;-79
2024/04/19 01:09:44;;;;;;;;;;;;;;;;;;366231;27;985;-79
2024/04/19 01:09:55;;;;;;;;;;;;;;;;;;366420;27;941;-78
2024/04/19 01:10:05;;;;;;;;;;;;;;;;;;366355;27;1282;-78
2024/04/19 01:10:16;;;;;;;;;;;;;;;;;;366359;26;1614;-79
2024/04/19 01:10:26;;;;;;;;;;;;;;;;;;368826;26;988;-79
2024/04/19 01:10:37;;;;;;;;;;;;;;;;;;368563;26;1298;-79
2024/04/19 01:10:47;;;;;;;;;;;;;;;;;;368841;26;1047;-79
2024/04/19 01:10:58;;;;;;;;;;;;;;;;;;371035;26;1271;-79
2024/04/19 01:11:08;;;;;;;;;;;;;;;;;;368723;26;1174;-79
2024/04/19 01:11:19;;;;;;;;;;;;;;;;;;366212;27;810;-79
2024/04/19 01:11:29;;;;;;;;;;;;;;;;;;366385;27;1009;-79
2024/04/19 01:11:40;;;;;;;;;;;;;;;;;;366408;27;1056;-79
2024/04/19 01:11:50;;;;;;;;;;;;;;;;;;368830;26;961;-79
2024/04/19 01:12:00;;;;;;;;;;;;;;;;;;368684;26;1331;-79
2024/04/19 01:12:11;;;;;;;;;;;;;;;;;;370101;26;933;-79
2024/04/19 01:12:21;;;;;;;;;;;;;;;;;;368937;26;1979;-79
2024/04/19 01:12:31;;;;;;;;;;;;;;;;;;368868;26;905;-79
2024/04/19 01:12:41;;;;;;;;;;;;;;;;;;368738;26;743;-79
2024/04/19 01:12:52;;;;;;;;;;;;;;;;;;371120;26;972;-79
2024/04/19 01:13:02;;;;;;;;;;;;;;;;;;371217;26;1032;-79
2024/04/19 01:13:13;;;;;;;;;;;;;;;;;;368698;26;1215;-79
2024/04/19 01:13:23;;;;;;;;;;;;;;;;;;370219;26;1449;-79
2024/04/19 01:13:34;;;;;;;;;;;;;;;;;;368755;26;1032;-79
2024/04/19 01:13:44;;;;;;;;;;;;;;;;;;368742;26;1165;-79
2024/04/19 01:13:54;;;;;;;;;;;;;;;;;;368786;26;996;-79
2024/04/19 01:14:05;;;;;;;;;;;;;;;;;;368487;26;1679;-79
2024/04/19 01:14:15;;;;;;;;;;;;;;;;;;371133;26;1305;-79
2024/04/19 01:14:25;;;;;;;;;;;;;;;;;;371240;26;1051;-79
2024/04/19 01:14:35;;;;;;;;;;;;;;;;;;368708;26;1313;-79
2024/04/19 01:14:46;;;;;;;;;;;;;;;;;;366258;27;1219;-79
2024/04/19 01:14:56;;;;;;;;;;;;;;;;;;366483;27;1067;-79